Terminal Aerodrome Forecast
Issued by NWS

Home | Current Version | Previous Version | Graphics & Text | Print | Product List | Glossary On
Versions: 1 2 3 4 5 6 7 8 9 10 11 12 13
000
FTUS43 KTOP 230500
TAFMHK
TAF
KMHK 230529Z 2306/2406 26006KT P6SM SCT060
     FM231600 31011KT P6SM BKN020
     FM232100 33013KT 4SM -RASN BR OVC012=

USA.gov is the U.S. government's official web portal to all federal, state and local government web resources and services.